createdAt,value
2019-02-26T00:02:00.458Z,21.30
2019-02-26T00:04:34.448Z,21.30
2019-02-26T00:07:06.449Z,21.30
2019-02-26T00:09:39.036Z,21.30
2019-02-26T00:12:11.369Z,21.30
2019-02-26T00:14:45.371Z,21.30
2019-02-26T00:17:19.550Z,21.20
2019-02-26T00:19:51.527Z,21.20
2019-02-26T00:22:23.838Z,21.20
2019-02-26T00:24:56.073Z,21.20
2019-02-26T00:27:32.884Z,21.20
2019-02-26T00:30:07.440Z,21.20
2019-02-26T00:32:40.487Z,21.20
2019-02-26T00:35:13.082Z,21.20
2019-02-26T00:37:46.666Z,21.20
2019-02-26T00:40:20.145Z,21.10
2019-02-26T00:42:56.471Z,21.20
2019-02-26T00:45:27.282Z,21.10
2019-02-26T00:48:00.854Z,21.10
2019-02-26T00:50:35.565Z,21.10
2019-02-26T00:53:06.945Z,21.10
2019-02-26T00:55:39.749Z,21.10
2019-02-26T00:58:12.871Z,21.10
2019-02-26T01:00:45.285Z,21.10
2019-02-26T01:03:17.732Z,21.10
2019-02-26T01:05:50.253Z,21.10
2019-02-26T01:08:22.738Z,21.10
2019-02-26T01:10:56.963Z,21.10
2019-02-26T01:13:30.092Z,21.00
2019-02-26T01:16:03.151Z,21.00
2019-02-26T01:18:35.623Z,21.00
2019-02-26T01:21:08.030Z,21.00
2019-02-26T01:23:40.412Z,21.00
2019-02-26T01:26:13.020Z,21.00
2019-02-26T01:28:48.320Z,21.00
2019-02-26T01:31:20.686Z,21.00
2019-02-26T01:33:55.190Z,21.00
2019-02-26T01:36:27.162Z,20.90
2019-02-26T01:38:59.565Z,20.90
2019-02-26T01:41:32.152Z,20.90
2019-02-26T01:44:04.719Z,20.90
2019-02-26T01:46:38.825Z,20.90
2019-02-26T01:49:10.941Z,20.90
2019-02-26T01:51:44.969Z,20.90
2019-02-26T01:54:17.311Z,20.90
2019-02-26T01:56:52.674Z,20.90
2019-02-26T01:59:24.087Z,20.90
2019-02-26T02:01:56.676Z,20.90
2019-02-26T02:04:29.065Z,20.90
2019-02-26T02:07:03.490Z,20.90
2019-02-26T02:12:27.458Z,20.80
2019-02-26T02:14:58.569Z,20.80
2019-02-26T02:17:33.285Z,20.80
2019-02-26T02:20:07.836Z,20.80
2019-02-26T02:22:40.386Z,20.80
2019-02-26T02:25:14.735Z,20.80
2019-02-26T02:27:50.066Z,20.80
2019-02-26T02:30:26.811Z,20.90
2019-02-26T02:32:57.552Z,21.90
2019-02-26T02:35:29.699Z,22.90
2019-02-26T02:38:04.332Z,23.70
2019-02-26T02:40:39.885Z,24.40
2019-02-26T02:43:12.298Z,25.00
2019-02-26T02:45:44.034Z,25.40
2019-02-26T02:48:16.608Z,25.80
2019-02-26T02:50:49.293Z,26.20
2019-02-26T02:53:23.946Z,26.00
2019-02-26T02:55:55.520Z,25.20
2019-02-26T02:58:28.367Z,24.60
2019-02-26T03:01:00.738Z,24.10
2019-02-26T03:03:33.421Z,23.80
2019-02-26T03:06:07.635Z,23.50
2019-02-26T03:08:42.118Z,23.40
2019-02-26T03:11:13.570Z,23.20
2019-02-26T03:13:48.340Z,23.10
2019-02-26T03:16:21.974Z,23.00
2019-02-26T03:18:53.807Z,22.90
2019-02-26T03:21:27.778Z,22.80
2019-02-26T03:24:02.881Z,22.80
2019-02-26T03:26:34.595Z,22.70
2019-02-26T03:29:06.920Z,22.70
2019-02-26T03:31:41.122Z,22.60
2019-02-26T03:34:19.725Z,22.60
2019-02-26T03:36:48.379Z,22.50
2019-02-26T03:39:20.676Z,22.40
2019-02-26T03:41:53.483Z,22.40
2019-02-26T03:44:29.612Z,22.40
2019-02-26T03:47:00.880Z,22.30
2019-02-26T03:49:33.225Z,22.30
2019-02-26T03:52:05.433Z,22.20
2019-02-26T03:54:40.241Z,22.20
2019-02-26T03:57:14.096Z,22.20
2019-02-26T03:59:46.065Z,22.10
2019-02-26T04:02:20.862Z,22.10
2019-02-26T04:04:54.383Z,22.10
2019-02-26T04:07:28.361Z,22.10
2019-02-26T04:10:01.018Z,22.10
2019-02-26T04:12:39.224Z,22.00
2019-02-26T04:15:15.760Z,22.00
2019-02-26T04:17:48.181Z,22.00
2019-02-26T04:20:20.427Z,21.90
2019-02-26T04:22:53.938Z,21.90
2019-02-26T04:25:38.066Z,21.90
2019-02-26T04:28:12.750Z,21.90
2019-02-26T04:31:05.239Z,21.90
2019-02-26T04:33:48.779Z,21.80
2019-02-26T04:36:29.584Z,21.80
2019-02-26T04:39:34.106Z,21.80
2019-02-26T04:42:17.550Z,21.70
2019-02-26T04:45:10.644Z,21.70
2019-02-26T04:47:51.873Z,21.70
2019-02-26T04:50:26.055Z,21.70
2019-02-26T04:52:59.750Z,21.60
2019-02-26T04:55:32.908Z,21.70
2019-02-26T04:58:04.843Z,21.70
2019-02-26T05:00:38.646Z,21.60
2019-02-26T05:06:05.319Z,21.70
2019-02-26T05:08:42.855Z,22.70
2019-02-26T05:11:30.803Z,23.70
2019-02-26T05:13:50.952Z,24.50
2019-02-26T05:16:28.857Z,25.10
2019-02-26T05:18:59.916Z,25.70
2019-02-26T05:21:40.949Z,25.60
2019-02-26T05:24:15.728Z,24.80
2019-02-26T05:26:48.230Z,24.30
2019-02-26T05:29:20.640Z,23.90
2019-02-26T05:31:58.839Z,23.60
2019-02-26T05:34:39.887Z,23.40
2019-02-26T05:37:13.981Z,23.20
2019-02-26T05:39:49.091Z,23.10
2019-02-26T05:42:21.177Z,23.00
2019-02-26T05:44:59.148Z,22.80
2019-02-26T05:47:32.575Z,22.80
2019-02-26T05:50:08.724Z,22.70
2019-02-26T05:52:40.506Z,22.60
2019-02-26T05:55:17.664Z,22.50
2019-02-26T05:57:50.387Z,22.40
2019-02-26T06:00:26.268Z,22.40
2019-02-26T06:02:57.155Z,22.40
2019-02-26T06:05:29.829Z,22.30
2019-02-26T06:08:02.051Z,22.30
2019-02-26T06:10:34.687Z,22.30
2019-02-26T06:13:10.084Z,22.20
2019-02-26T06:15:44.938Z,22.20
2019-02-26T06:18:17.759Z,22.20
2019-02-26T06:20:51.580Z,22.10
2019-02-26T06:23:25.425Z,22.10
2019-02-26T06:26:02.349Z,22.10
2019-02-26T06:28:38.031Z,22.10
2019-02-26T06:31:11.530Z,22.00
2019-02-26T06:33:43.680Z,22.00
2019-02-26T06:36:17.953Z,22.00
2019-02-26T06:38:53.726Z,21.90
2019-02-26T06:41:24.897Z,21.90
2019-02-26T06:43:57.991Z,21.90
2019-02-26T06:46:33.791Z,21.90
2019-02-26T06:49:06.917Z,21.80
2019-02-26T06:51:39.126Z,21.80
2019-02-26T06:54:15.354Z,21.70
2019-02-26T06:56:46.833Z,21.70
2019-02-26T06:59:25.180Z,21.70
2019-02-26T07:01:58.042Z,21.70
2019-02-26T07:04:32.510Z,21.60
2019-02-26T07:07:07.387Z,21.60
2019-02-26T07:09:39.622Z,21.60
2019-02-26T07:12:14.470Z,21.50
2019-02-26T07:14:48.362Z,21.50
2019-02-26T07:17:20.924Z,21.60
2019-02-26T07:19:55.449Z,21.50
2019-02-26T07:22:27.237Z,21.50
2019-02-26T07:24:59.666Z,21.50
2019-02-26T07:27:33.692Z,21.50
2019-02-26T07:30:07.857Z,21.50
2019-02-26T07:32:40.859Z,21.50
2019-02-26T07:35:16.637Z,21.50
2019-02-26T07:37:48.372Z,21.40
2019-02-26T07:40:20.853Z,21.40
2019-02-26T07:42:53.267Z,21.40
2019-02-26T07:45:27.314Z,21.40
2019-02-26T07:48:00.967Z,21.40
2019-02-26T07:50:37.688Z,21.40
2019-02-26T07:53:08.207Z,21.40
2019-02-26T07:55:42.387Z,21.30
2019-02-26T07:58:15.578Z,21.30
2019-02-26T08:00:49.715Z,21.30
2019-02-26T08:03:26.185Z,21.30
2019-02-26T08:05:59.297Z,21.30
2019-02-26T08:08:31.593Z,21.20
2019-02-26T08:11:03.894Z,21.20
2019-02-26T08:13:36.655Z,21.20
2019-02-26T08:16:09.017Z,21.20
2019-02-26T08:18:41.674Z,21.20
2019-02-26T08:21:14.128Z,21.20
2019-02-26T08:23:48.243Z,21.20
2019-02-26T08:26:22.117Z,21.10
2019-02-26T08:28:54.681Z,21.10
2019-02-26T08:31:27.944Z,21.10
2019-02-26T08:34:00.620Z,21.10
2019-02-26T08:36:32.923Z,21.10
2019-02-26T08:39:06.849Z,21.10
2019-02-26T08:41:43.155Z,21.10
2019-02-26T08:44:14.604Z,21.10
2019-02-26T08:46:48.935Z,21.00
2019-02-26T08:49:22.526Z,21.00
2019-02-26T08:51:55.116Z,21.40
2019-02-26T08:54:30.258Z,22.30
2019-02-26T08:57:01.607Z,23.20
2019-02-26T08:59:34.102Z,23.90
2019-02-26T09:02:07.636Z,24.20
2019-02-26T09:04:40.861Z,23.60
2019-02-26T09:07:16.362Z,23.10
2019-02-26T09:09:50.122Z,22.70
2019-02-26T09:12:24.726Z,22.40
2019-02-26T09:14:56.880Z,22.20
2019-02-26T09:17:30.417Z,22.10
2019-02-26T09:20:09.275Z,22.00
2019-02-26T09:22:37.891Z,21.90
2019-02-26T09:25:11.658Z,21.90
2019-02-26T09:27:44.100Z,21.80
2019-02-26T09:30:20.060Z,21.70
2019-02-26T09:32:52.669Z,21.70
2019-02-26T09:35:28.294Z,21.60
2019-02-26T09:38:00.896Z,21.60
2019-02-26T09:40:34.429Z,21.50
2019-02-26T09:43:07.027Z,21.50
2019-02-26T09:45:41.194Z,21.50
2019-02-26T09:48:15.229Z,21.40
2019-02-26T09:50:48.697Z,21.40
2019-02-26T09:53:21.145Z,21.40
2019-02-26T09:55:53.612Z,21.30
2019-02-26T09:58:25.967Z,21.30
2019-02-26T10:00:58.224Z,21.30
2019-02-26T10:03:34.474Z,21.30
2019-02-26T10:06:05.016Z,21.20
2019-02-26T10:08:37.837Z,21.20
2019-02-26T10:11:10.439Z,21.20
2019-02-26T10:13:44.401Z,21.60
2019-02-26T10:16:16.871Z,22.60
2019-02-26T10:18:50.018Z,23.50
2019-02-26T10:21:23.533Z,24.20
2019-02-26T10:23:56.897Z,24.10
2019-02-26T10:26:33.362Z,23.50
2019-02-26T10:29:05.991Z,23.10
2019-02-26T10:31:41.104Z,22.70
2019-02-26T10:34:15.660Z,22.40
2019-02-26T10:36:49.319Z,22.30
2019-02-26T10:39:23.179Z,22.10
2019-02-26T10:41:55.170Z,22.10
2019-02-26T10:44:27.675Z,22.00
2019-02-26T10:47:01.209Z,21.90
2019-02-26T10:49:34.234Z,21.90
2019-02-26T10:52:06.946Z,21.80
2019-02-26T10:54:40.562Z,21.70
2019-02-26T10:57:14.541Z,21.60
2019-02-26T10:59:46.973Z,21.60
2019-02-26T11:02:20.752Z,21.50
2019-02-26T11:04:55.420Z,21.50
2019-02-26T11:07:28.757Z,21.50
2019-02-26T11:10:01.773Z,21.50
2019-02-26T11:12:35.631Z,21.40
2019-02-26T11:15:10.609Z,21.40
2019-02-26T11:17:43.936Z,21.30
2019-02-26T11:20:21.854Z,21.40
2019-02-26T11:22:54.941Z,21.30
2019-02-26T11:25:27.722Z,21.30
2019-02-26T11:28:02.550Z,21.20
2019-02-26T11:30:34.208Z,21.20
2019-02-26T11:33:08.616Z,21.60
2019-02-26T11:35:42.196Z,22.60
2019-02-26T11:38:16.960Z,23.50
2019-02-26T11:40:48.826Z,24.20
2019-02-26T11:43:25.560Z,24.00
2019-02-26T11:45:56.750Z,23.50
2019-02-26T11:48:32.709Z,23.00
2019-02-26T11:51:03.621Z,22.70
2019-02-26T11:53:36.403Z,22.40
2019-02-26T11:56:09.105Z,22.30
2019-02-26T11:58:41.721Z,22.10
2019-02-26T12:01:14.819Z,22.10
2019-02-26T12:03:47.217Z,22.00
2019-02-26T12:06:19.796Z,21.90
2019-02-26T12:08:52.460Z,21.80
2019-02-26T12:11:25.513Z,21.70
2019-02-26T12:13:58.283Z,21.70
2019-02-26T12:16:30.755Z,21.60
2019-02-26T12:19:04.040Z,21.60
2019-02-26T12:21:37.172Z,21.50
2019-02-26T12:24:12.448Z,21.50
2019-02-26T12:26:45.298Z,21.50
2019-02-26T12:29:18.687Z,21.40
2019-02-26T12:31:53.806Z,21.40
2019-02-26T12:34:25.641Z,21.30
2019-02-26T12:37:02.082Z,21.30
2019-02-26T12:39:32.069Z,21.30
2019-02-26T12:42:07.075Z,21.20
2019-02-26T12:44:42.317Z,21.20
2019-02-26T12:47:14.686Z,21.20
2019-02-26T12:49:46.674Z,21.20
2019-02-26T12:52:21.924Z,21.10
2019-02-26T12:54:54.862Z,21.10
2019-02-26T12:57:28.884Z,21.10
2019-02-26T13:00:01.263Z,21.50
2019-02-26T13:02:36.916Z,22.50
2019-02-26T13:05:12.836Z,23.30
2019-02-26T13:07:44.495Z,24.00
2019-02-26T13:10:26.854Z,24.20
2019-02-26T13:13:03.001Z,23.60
2019-02-26T13:15:33.909Z,23.10
2019-02-26T13:18:06.630Z,22.70
2019-02-26T13:20:39.205Z,22.40
2019-02-26T13:23:21.575Z,22.20
2019-02-26T13:25:46.990Z,22.10
2019-02-26T13:28:19.557Z,22.00
2019-02-26T13:30:52.219Z,21.90
2019-02-26T13:33:32.520Z,21.90
2019-02-26T13:36:01.193Z,21.80
2019-02-26T13:38:37.617Z,21.70
2019-02-26T13:41:27.316Z,21.70
2019-02-26T13:43:41.295Z,21.60
2019-02-26T13:46:15.223Z,21.50
2019-02-26T13:48:47.709Z,21.50
2019-02-26T13:51:21.318Z,21.80
2019-02-26T13:53:53.802Z,22.80
2019-02-26T13:56:26.594Z,23.70
2019-02-26T13:58:59.282Z,24.40
2019-02-26T14:01:31.908Z,24.00
2019-02-26T14:04:04.612Z,23.50
2019-02-26T14:06:37.330Z,24.00
2019-02-26T14:09:10.108Z,24.80
2019-02-26T14:11:43.010Z,25.30
2019-02-26T14:14:16.955Z,25.80
2019-02-26T14:16:49.998Z,26.20
2019-02-26T14:19:22.468Z,25.90
2019-02-26T14:21:55.083Z,25.20
2019-02-26T14:24:27.584Z,24.70
2019-02-26T14:27:00.265Z,24.20
2019-02-26T14:29:32.779Z,23.90
2019-02-26T14:32:05.416Z,23.60
2019-02-26T14:34:37.893Z,23.40
2019-02-26T14:37:10.386Z,23.20
2019-02-26T14:39:42.885Z,23.60
2019-02-26T14:42:16.378Z,24.60
2019-02-26T14:44:49.147Z,25.40
2019-02-26T14:47:21.832Z,26.00
2019-02-26T14:49:54.408Z,26.40
2019-02-26T14:52:27.090Z,25.80
2019-02-26T14:54:59.753Z,25.20
2019-02-26T14:57:32.464Z,24.70
2019-02-26T15:00:05.428Z,24.30
2019-02-26T15:02:39.442Z,24.00
2019-02-26T15:05:12.114Z,23.80
2019-02-26T15:07:44.835Z,23.60
2019-02-26T15:10:17.403Z,23.50
2019-02-26T15:12:50.138Z,23.30
2019-02-26T15:15:23.287Z,23.20
2019-02-26T15:17:56.506Z,23.10
2019-02-26T15:20:29.476Z,23.00
2019-02-26T15:23:02.298Z,23.00
2019-02-26T15:25:35.144Z,22.90
2019-02-26T15:28:07.922Z,22.80
2019-02-26T15:30:40.417Z,22.80
2019-02-26T15:33:13.151Z,23.00
2019-02-26T15:35:46.899Z,23.90
2019-02-26T15:38:19.696Z,24.80
2019-02-26T15:40:53.332Z,25.50
2019-02-26T15:43:25.982Z,26.10
2019-02-26T15:45:59.771Z,26.50
2019-02-26T15:48:36.449Z,26.90
2019-02-26T15:51:14.356Z,27.10
2019-02-26T15:53:42.392Z,27.50
2019-02-26T15:56:15.107Z,27.70
2019-02-26T15:58:47.801Z,26.90
2019-02-26T16:01:20.505Z,26.30
2019-02-26T16:03:53.234Z,25.70
2019-02-26T16:06:25.965Z,25.30
2019-02-26T16:08:58.473Z,25.00
2019-02-26T16:11:31.354Z,24.80
2019-02-26T16:14:03.970Z,24.70
2019-02-26T16:16:36.765Z,24.60
2019-02-26T16:19:09.824Z,24.40
2019-02-26T16:21:42.413Z,24.30
2019-02-26T16:24:15.020Z,24.10
2019-02-26T16:26:47.635Z,24.00
2019-02-26T16:29:20.159Z,23.90
2019-02-26T16:31:52.645Z,23.80
2019-02-26T16:34:24.992Z,23.80
2019-02-26T16:36:57.526Z,23.70
2019-02-26T16:39:29.964Z,23.70
2019-02-26T16:42:02.646Z,23.60
2019-02-26T16:44:35.679Z,23.50
2019-02-26T16:47:08.302Z,23.50
2019-02-26T16:49:40.753Z,23.40
2019-02-26T16:52:13.374Z,23.40
2019-02-26T16:54:45.727Z,23.30
2019-02-26T16:57:18.067Z,23.30
2019-02-26T16:59:50.565Z,23.20
2019-02-26T17:02:27.212Z,23.20
2019-02-26T17:04:57.527Z,23.20
2019-02-26T17:07:32.158Z,23.10
2019-02-26T17:10:04.518Z,23.10
2019-02-26T17:12:37.422Z,23.10
2019-02-26T17:15:15.143Z,23.10
2019-02-26T17:17:48.015Z,23.00
2019-02-26T17:20:22.508Z,23.00
2019-02-26T17:22:54.687Z,23.00
2019-02-26T17:25:28.637Z,22.90
2019-02-26T17:28:01.476Z,22.90
2019-02-26T17:30:33.997Z,22.80
2019-02-26T17:33:06.404Z,22.80
2019-02-26T17:35:38.706Z,22.70
2019-02-26T17:38:12.854Z,22.70
2019-02-26T17:40:45.071Z,22.70
2019-02-26T17:43:17.592Z,22.60
2019-02-26T17:45:50.316Z,22.60
2019-02-26T17:48:22.723Z,22.60
2019-02-26T17:50:55.463Z,22.50
2019-02-26T17:53:28.349Z,22.50
2019-02-26T17:56:00.963Z,22.40
2019-02-26T17:58:33.265Z,22.40
2019-02-26T18:01:05.933Z,22.40
2019-02-26T18:03:38.388Z,22.30
2019-02-26T18:06:10.806Z,22.30
2019-02-26T18:08:43.149Z,22.30
2019-02-26T18:11:15.613Z,22.30
2019-02-26T18:13:48.332Z,22.20
2019-02-26T18:16:21.670Z,22.20
2019-02-26T18:18:54.736Z,22.20
2019-02-26T18:21:27.106Z,22.20
2019-02-26T18:23:59.519Z,22.10
2019-02-26T18:26:32.084Z,22.10
2019-02-26T18:29:04.638Z,22.10
2019-02-26T18:31:36.903Z,22.10
2019-02-26T18:34:11.744Z,22.00
2019-02-26T18:36:45.480Z,22.00
2019-02-26T18:39:22.396Z,22.00
2019-02-26T18:41:52.723Z,22.00
2019-02-26T18:44:25.045Z,21.90
2019-02-26T18:46:57.688Z,21.90
2019-02-26T18:49:30.118Z,21.90
2019-02-26T18:52:02.670Z,21.90
2019-02-26T18:54:35.132Z,21.90
2019-02-26T18:57:11.302Z,21.80
2019-02-26T18:59:41.546Z,21.80
2019-02-26T19:02:16.940Z,21.80
2019-02-26T19:04:49.448Z,21.70
2019-02-26T19:07:21.893Z,21.70
2019-02-26T19:09:54.378Z,21.70
2019-02-26T19:12:30.431Z,21.70
2019-02-26T19:15:00.993Z,21.70
2019-02-26T19:17:33.864Z,21.60
2019-02-26T19:20:09.270Z,21.60
2019-02-26T19:22:42.294Z,21.70
2019-02-26T19:25:15.321Z,21.60
2019-02-26T19:27:47.778Z,21.60
2019-02-26T19:30:22.545Z,21.60
2019-02-26T19:32:55.171Z,21.60
2019-02-26T19:35:27.759Z,21.60
2019-02-26T19:38:01.416Z,21.60
2019-02-26T19:40:49.566Z,21.50
2019-02-26T19:43:23.766Z,21.50
2019-02-26T19:45:56.181Z,21.50
2019-02-26T19:48:30.880Z,21.50
2019-02-26T19:51:02.675Z,21.50
2019-02-26T19:53:35.309Z,21.40
2019-02-26T19:56:07.831Z,21.50
2019-02-26T19:58:41.000Z,21.40
2019-02-26T20:01:14.230Z,21.40
2019-02-26T20:03:46.755Z,21.40
2019-02-26T20:06:23.302Z,21.40
2019-02-26T20:08:53.381Z,21.40
2019-02-26T20:11:25.693Z,21.40
2019-02-26T20:14:04.520Z,21.40
2019-02-26T20:16:32.070Z,21.40
2019-02-26T20:19:04.702Z,21.30
2019-02-26T20:21:37.409Z,21.30
2019-02-26T20:27:02.601Z,21.30
2019-02-26T20:29:36.156Z,21.30
2019-02-26T20:32:08.679Z,21.30
2019-02-26T20:34:41.121Z,21.30
2019-02-26T20:37:13.428Z,21.30
2019-02-26T20:39:45.962Z,21.30
2019-02-26T20:42:18.383Z,21.20
2019-02-26T20:44:58.800Z,21.20
2019-02-26T20:47:25.058Z,21.20
2019-02-26T20:49:57.610Z,21.20
2019-02-26T20:52:32.638Z,21.20
2019-02-26T20:55:04.341Z,21.20
2019-02-26T20:57:37.789Z,21.20
2019-02-26T21:00:15.762Z,21.20
2019-02-26T21:02:48.637Z,21.10
2019-02-26T21:05:21.385Z,21.20
2019-02-26T21:07:57.959Z,21.10
2019-02-26T21:10:28.248Z,21.10
2019-02-26T21:13:01.885Z,21.10
2019-02-26T21:15:34.868Z,21.10
2019-02-26T21:18:08.238Z,21.10
2019-02-26T21:20:41.754Z,21.10
2019-02-26T21:23:14.915Z,21.10
2019-02-26T21:25:47.602Z,21.10
2019-02-26T21:28:20.242Z,21.00
2019-02-26T21:30:52.887Z,21.00
2019-02-26T21:33:25.478Z,21.00
2019-02-26T21:35:58.097Z,21.00
2019-02-26T21:38:30.720Z,21.00
2019-02-26T21:41:03.416Z,21.00
2019-02-26T21:43:36.009Z,21.00
2019-02-26T21:46:08.631Z,21.00
2019-02-26T21:48:41.114Z,21.00
2019-02-26T21:51:13.759Z,21.00
2019-02-26T21:53:46.670Z,20.90
2019-02-26T21:56:20.502Z,21.00
2019-02-26T21:58:53.137Z,21.00
2019-02-26T22:01:25.742Z,20.90
2019-02-26T22:03:59.135Z,20.90
2019-02-26T22:06:32.109Z,20.90
2019-02-26T22:09:04.806Z,20.90
2019-02-26T22:11:38.674Z,20.90
2019-02-26T22:14:11.454Z,20.90
2019-02-26T22:16:44.014Z,20.90
2019-02-26T22:19:21.498Z,20.90
2019-02-26T22:21:55.812Z,20.80
2019-02-26T22:24:28.612Z,20.80
2019-02-26T22:27:01.324Z,20.80
2019-02-26T22:29:36.166Z,20.80
2019-02-26T22:32:08.210Z,20.80
2019-02-26T22:34:53.583Z,20.80
2019-02-26T22:37:26.905Z,20.80
2019-02-26T22:39:59.254Z,20.80
2019-02-26T22:42:31.694Z,20.80
2019-02-26T22:45:06.113Z,20.80
2019-02-26T22:47:40.569Z,20.80
2019-02-26T22:50:19.902Z,20.70
2019-02-26T22:52:52.327Z,20.70
2019-02-26T22:55:24.640Z,20.70
2019-02-26T22:57:57.329Z,20.70
2019-02-26T23:00:48.133Z,20.70
2019-02-26T23:03:20.512Z,20.70
2019-02-26T23:05:52.984Z,20.70
2019-02-26T23:08:25.953Z,20.70
2019-02-26T23:10:58.754Z,20.70
2019-02-26T23:13:31.939Z,20.70
2019-02-26T23:16:05.927Z,20.70
2019-02-26T23:18:38.550Z,20.60
2019-02-26T23:21:15.490Z,20.60
2019-02-26T23:23:46.157Z,20.60
2019-02-26T23:26:19.099Z,20.60
2019-02-26T23:28:54.488Z,20.60
2019-02-26T23:31:26.191Z,20.60
2019-02-26T23:33:58.686Z,20.60
2019-02-26T23:36:31.555Z,20.60
2019-02-26T23:39:05.972Z,20.60
2019-02-26T23:41:39.769Z,20.60
2019-02-26T23:44:12.817Z,20.60
2019-02-26T23:46:45.585Z,20.60
2019-02-26T23:49:18.068Z,20.50
2019-02-26T23:51:53.372Z,20.50
2019-02-26T23:54:24.392Z,20.50
2019-02-26T23:56:56.963Z,20.50
2019-02-26T23:59:29.975Z,20.50
